Time;durP1;ratioP1;P1;durP2;ratioP2;P2;SDS_P1;SDS_P2;PMS_P1;PMS_P2;Temp;Humidity;BMP_temperature;BMP_pressure;BME280_temperature;BME280_humidity;BME280_pressure;Samples;Min_cycle;Max_cycle;Signal;HPM_P1;HPM_P2
2024/02/26 00:02:18;;;;;;;5.88;2.92;;;7.00;99.90;;;;;;4980358;28;20023;-75
2024/02/26 00:04:44;;;;;;;4.82;3.15;;;7.00;99.90;;;;;;5001754;28;20030;-75
2024/02/26 00:07:09;;;;;;;4.20;3.08;;;6.90;99.90;;;;;;5009525;28;20032;-75
2024/02/26 00:09:37;;;;;;;4.78;2.65;;;6.90;99.90;;;;;;4999760;28;20064;-76
2024/02/26 00:12:03;;;;;;;5.97;3.28;;;6.90;99.90;;;;;;4987124;28;20029;-76
2024/02/26 00:14:30;;;;;;;4.50;2.90;;;6.90;99.90;;;;;;4986120;28;20467;-77
2024/02/26 00:16:55;;;;;;;4.97;3.03;;;6.90;99.90;;;;;;4973739;28;20031;-76
2024/02/26 00:19:21;;;;;;;8.25;2.85;;;6.90;99.90;;;;;;4985636;28;20120;-75
2024/02/26 00:21:47;;;;;;;6.13;3.05;;;6.90;99.90;;;;;;4975756;28;20038;-75
2024/02/26 00:24:12;;;;;;;4.35;2.55;;;6.90;99.90;;;;;;4962842;28;20023;-75
2024/02/26 00:26:38;;;;;;;6.82;3.15;;;6.90;99.90;;;;;;4976310;28;20383;-76
2024/02/26 00:29:04;;;;;;;3.63;2.67;;;6.90;99.90;;;;;;4986302;28;20038;-76
2024/02/26 00:31:30;;;;;;;5.72;2.75;;;6.80;99.90;;;;;;4979611;28;20019;-76
2024/02/26 00:33:56;;;;;;;6.32;2.72;;;6.80;99.90;;;;;;4962370;28;20038;-75
2024/02/26 00:36:21;;;;;;;4.95;3.10;;;6.80;99.90;;;;;;4972656;28;20493;-76
2024/02/26 00:38:50;;;;;;;6.05;2.63;;;6.80;99.90;;;;;;4957840;28;20443;-76
2024/02/26 00:41:17;;;;;;;4.57;3.05;;;6.80;99.90;;;;;;4980779;28;20022;-76
2024/02/26 00:43:43;;;;;;;4.50;2.90;;;6.80;99.90;;;;;;4976727;28;20174;-75
2024/02/26 00:46:09;;;;;;;4.88;3.17;;;6.80;99.90;;;;;;4986862;28;20109;-76
2024/02/26 00:48:35;;;;;;;5.63;3.25;;;6.80;99.90;;;;;;4978316;28;20030;-76
2024/02/26 00:51:00;;;;;;;5.93;3.50;;;6.80;99.90;;;;;;4963393;28;20022;-76
2024/02/26 00:53:26;;;;;;;6.07;3.30;;;6.80;99.90;;;;;;4951383;28;20046;-76
2024/02/26 00:55:52;;;;;;;5.68;3.67;;;6.90;99.90;;;;;;4983133;28;20022;-75
2024/02/26 00:58:18;;;;;;;4.65;3.05;;;6.90;99.90;;;;;;4987703;28;20026;-76
2024/02/26 01:00:44;;;;;;;7.57;3.33;;;6.90;99.90;;;;;;4986627;28;20053;-76
2024/02/26 01:03:10;;;;;;;6.40;3.50;;;6.90;99.90;;;;;;4972289;28;20539;-76
2024/02/26 01:05:37;;;;;;;6.63;3.30;;;6.90;99.90;;;;;;4986237;28;20430;-76
2024/02/26 01:08:03;;;;;;;5.60;3.38;;;6.90;99.90;;;;;;4969912;28;20018;-76
2024/02/26 01:10:29;;;;;;;4.22;3.20;;;6.90;99.90;;;;;;5004047;28;20046;-76
2024/02/26 01:12:54;;;;;;;5.72;3.25;;;6.90;99.90;;;;;;5009762;28;20040;-76
2024/02/26 01:15:23;;;;;;;7.35;3.25;;;6.90;99.90;;;;;;4995577;28;20021;-76
2024/02/26 01:17:52;;;;;;;5.03;3.28;;;6.90;99.90;;;;;;5009751;28;20026;-76
2024/02/26 01:20:18;;;;;;;5.40;3.03;;;6.90;99.90;;;;;;5003401;28;20026;-76
2024/02/26 01:22:44;;;;;;;5.25;3.10;;;6.90;99.90;;;;;;5013799;28;20127;-75
2024/02/26 01:25:10;;;;;;;6.80;3.03;;;6.90;99.90;;;;;;5000623;28;20081;-76
2024/02/26 01:27:40;;;;;;;7.30;3.40;;;6.90;99.90;;;;;;5006728;28;20022;-76
2024/02/26 01:30:07;;;;;;;4.65;2.85;;;6.90;99.90;;;;;;5009539;28;20108;-75
2024/02/26 01:32:36;;;;;;;4.30;2.80;;;6.90;99.90;;;;;;4994776;28;20523;-75
2024/02/26 01:35:07;;;;;;;4.28;2.70;;;6.90;99.90;;;;;;5009163;28;20030;-74
2024/02/26 01:37:33;;;;;;;5.18;3.08;;;7.00;99.90;;;;;;4995071;28;20495;-76
2024/02/26 01:39:58;;;;;;;4.53;2.25;;;6.90;99.90;;;;;;5008739;28;20032;-76
2024/02/26 01:42:24;;;;;;;4.05;2.58;;;7.00;99.90;;;;;;4996098;28;20026;-76
2024/02/26 01:44:49;;;;;;;4.72;2.65;;;6.90;99.90;;;;;;5007751;28;20120;-76
2024/02/26 01:47:15;;;;;;;5.40;3.20;;;7.00;99.90;;;;;;5012522;28;20030;-76
2024/02/26 01:49:41;;;;;;;3.65;2.20;;;7.00;99.90;;;;;;5008521;28;20077;-75
2024/02/26 01:52:08;;;;;;;3.70;2.20;;;7.00;99.90;;;;;;4991203;28;20077;-76
2024/02/26 01:54:38;;;;;;;4.93;2.30;;;7.00;99.90;;;;;;4994392;28;20037;-76
2024/02/26 01:57:05;;;;;;;4.80;2.42;;;7.00;99.90;;;;;;5009284;28;20022;-75
2024/02/26 01:59:33;;;;;;;3.30;2.33;;;7.00;99.90;;;;;;5008492;28;20116;-76
2024/02/26 02:02:01;;;;;;;3.78;2.58;;;7.00;99.90;;;;;;4995815;28;20049;-76
2024/02/26 02:04:28;;;;;;;3.58;2.70;;;7.00;99.90;;;;;;5008932;28;20018;-76
2024/02/26 02:06:58;;;;;;;4.40;2.78;;;7.00;99.90;;;;;;4977481;28;20033;-76
2024/02/26 02:09:24;;;;;;;4.25;3.10;;;7.00;99.90;;;;;;5007949;28;20487;-76
2024/02/26 02:11:50;;;;;;;5.28;3.10;;;7.00;99.90;;;;;;4987879;28;20022;-76
2024/02/26 02:14:15;;;;;;;5.43;3.15;;;7.00;99.90;;;;;;4983764;28;20570;-76
2024/02/26 02:16:41;;;;;;;4.82;2.80;;;7.00;99.90;;;;;;5008877;28;20080;-75
2024/02/26 02:19:07;;;;;;;4.10;2.83;;;7.00;99.90;;;;;;4994189;28;20024;-76
2024/02/26 02:21:32;;;;;;;4.25;2.78;;;7.00;99.90;;;;;;4981447;28;20034;-76
2024/02/26 02:23:58;;;;;;;4.35;2.92;;;6.90;99.90;;;;;;5002477;28;20032;-75
2024/02/26 02:26:24;;;;;;;6.38;3.65;;;6.90;99.90;;;;;;4978505;28;20026;-78
2024/02/26 02:28:49;;;;;;;5.05;3.30;;;6.90;99.90;;;;;;5007963;28;20030;-75
2024/02/26 02:31:15;;;;;;;5.78;3.38;;;6.90;99.90;;;;;;5002826;28;20030;-76
2024/02/26 02:33:43;;;;;;;5.28;3.38;;;6.90;99.90;;;;;;4981790;28;20053;-75
2024/02/26 02:36:10;;;;;;;5.15;3.30;;;6.90;99.90;;;;;;5008114;28;20076;-75
2024/02/26 02:38:48;;;;;;;5.30;3.22;;;6.90;99.90;;;;;;4998499;28;20030;-75
2024/02/26 02:41:14;;;;;;;6.15;3.47;;;6.90;99.90;;;;;;5008808;28;20069;-76
2024/02/26 02:43:40;;;;;;;5.25;3.40;;;6.90;99.90;;;;;;5007986;28;20058;-76
2024/02/26 02:46:05;;;;;;;8.98;3.55;;;6.90;99.90;;;;;;5007819;28;20461;-75
2024/02/26 02:48:31;;;;;;;5.43;3.17;;;6.90;99.90;;;;;;5007741;28;20030;-75
2024/02/26 02:50:57;;;;;;;5.07;3.15;;;6.80;99.90;;;;;;4990334;28;20042;-75
2024/02/26 02:53:22;;;;;;;6.07;3.35;;;6.80;99.90;;;;;;4989667;28;20018;-76
2024/02/26 02:55:48;;;;;;;5.43;3.30;;;6.80;99.90;;;;;;5008088;28;20487;-75
2024/02/26 02:58:14;;;;;;;5.35;3.22;;;6.80;99.90;;;;;;4993820;28;20466;-76
2024/02/26 03:00:39;;;;;;;6.88;3.65;;;6.80;99.90;;;;;;4981105;28;20022;-76
2024/02/26 03:03:05;;;;;;;6.25;3.40;;;6.80;99.90;;;;;;4987046;28;20045;-75
2024/02/26 03:05:30;;;;;;;7.53;3.85;;;6.80;99.90;;;;;;5009338;28;20454;-75
2024/02/26 03:07:56;;;;;;;7.28;3.50;;;6.80;99.90;;;;;;5000128;28;20028;-75
2024/02/26 03:10:22;;;;;;;7.38;3.67;;;6.80;99.90;;;;;;5007205;28;20144;-76
2024/02/26 03:12:47;;;;;;;6.13;3.50;;;6.80;99.90;;;;;;4996848;28;20034;-75
2024/02/26 03:15:13;;;;;;;5.32;3.22;;;6.80;99.90;;;;;;4986740;28;20057;-75
2024/02/26 03:17:39;;;;;;;6.05;3.17;;;6.80;99.90;;;;;;5007757;28;20029;-76
2024/02/26 03:20:08;;;;;;;5.93;3.35;;;6.80;99.90;;;;;;4989436;28;20081;-75
2024/02/26 03:22:34;;;;;;;7.88;3.67;;;6.80;99.90;;;;;;4989670;28;20449;-75
2024/02/26 03:24:59;;;;;;;5.18;3.05;;;6.80;99.90;;;;;;4997387;28;20509;-75
2024/02/26 03:27:25;;;;;;;8.73;3.70;;;6.80;99.90;;;;;;4985260;28;20474;-75
2024/02/26 03:29:51;;;;;;;5.45;3.03;;;6.80;99.90;;;;;;5006974;28;20018;-75
2024/02/26 03:32:16;;;;;;;5.47;3.30;;;6.80;99.90;;;;;;4975743;28;20345;-75
2024/02/26 03:34:42;;;;;;;5.90;3.28;;;6.80;99.90;;;;;;5006377;28;20026;-75
2024/02/26 03:37:10;;;;;;;4.80;3.10;;;6.80;99.90;;;;;;4996026;28;20586;-75
2024/02/26 03:39:35;;;;;;;5.13;3.05;;;6.80;99.90;;;;;;5004635;28;20109;-74
2024/02/26 03:42:02;;;;;;;6.13;3.63;;;6.80;99.90;;;;;;5006786;28;20113;-77
2024/02/26 03:44:27;;;;;;;5.40;3.22;;;6.80;99.90;;;;;;4974927;28;20509;-77
2024/02/26 03:46:53;;;;;;;5.43;3.63;;;6.80;99.90;;;;;;5007245;28;20030;-77
2024/02/26 03:49:19;;;;;;;5.40;3.53;;;6.80;99.90;;;;;;5006494;28;20076;-77
2024/02/26 03:51:44;;;;;;;5.97;3.35;;;6.80;99.90;;;;;;4978489;28;20022;-77
2024/02/26 03:54:10;;;;;;;4.32;3.05;;;6.90;99.90;;;;;;5010984;28;20033;-75
2024/02/26 03:56:36;;;;;;;6.20;3.13;;;6.80;99.90;;;;;;5003392;28;20030;-75
2024/02/26 03:59:02;;;;;;;6.07;3.00;;;6.90;99.90;;;;;;4997026;28;20026;-77
2024/02/26 04:01:28;;;;;;;4.20;3.03;;;6.90;99.90;;;;;;5007010;28;20096;-76
2024/02/26 04:03:54;;;;;;;5.43;3.17;;;6.90;99.90;;;;;;5006971;28;20030;-77
2024/02/26 04:06:21;;;;;;;4.43;3.22;;;6.90;99.90;;;;;;4988622;28;20053;-77
2024/02/26 04:08:49;;;;;;;5.15;2.75;;;6.90;99.90;;;;;;5000144;28;20038;-77
2024/02/26 04:11:17;;;;;;;4.78;2.80;;;6.80;99.90;;;;;;5006034;28;20038;-77
2024/02/26 04:13:49;;;;;;;6.05;3.22;;;6.80;99.90;;;;;;4988241;28;20106;-76
2024/02/26 04:16:16;;;;;;;3.85;2.50;;;6.80;99.90;;;;;;4988803;28;20056;-77
2024/02/26 04:18:42;;;;;;;5.07;2.90;;;6.90;99.90;;;;;;4988706;28;20037;-77
2024/02/26 04:21:08;;;;;;;5.57;3.10;;;6.90;99.90;;;;;;4995530;28;20018;-77
2024/02/26 04:23:33;;;;;;;5.68;3.10;;;6.80;99.90;;;;;;5010963;28;20062;-77
2024/02/26 04:26:02;;;;;;;5.68;3.05;;;6.80;99.90;;;;;;4992281;28;20498;-77
2024/02/26 04:28:29;;;;;;;4.80;3.10;;;6.90;99.90;;;;;;4995898;28;20101;-77
2024/02/26 04:30:55;;;;;;;3.75;2.60;;;6.90;99.90;;;;;;5003190;28;20096;-77
2024/02/26 04:33:21;;;;;;;5.50;3.28;;;6.90;99.90;;;;;;4997910;28;20539;-77
2024/02/26 04:35:47;;;;;;;6.82;3.13;;;6.90;99.90;;;;;;4982848;28;20026;-77
2024/02/26 04:38:12;;;;;;;5.63;3.42;;;6.90;99.90;;;;;;4975141;28;20041;-77
2024/02/26 04:40:38;;;;;;;7.47;3.50;;;6.90;99.90;;;;;;4993850;28;20022;-77
2024/02/26 04:43:04;;;;;;;5.50;3.03;;;6.90;99.90;;;;;;5003955;28;20133;-74
2024/02/26 04:45:30;;;;;;;6.05;3.17;;;6.90;99.90;;;;;;4988131;28;20029;-77
2024/02/26 04:47:55;;;;;;;5.70;3.03;;;6.80;99.90;;;;;;5008398;28;20037;-77
2024/02/26 04:50:21;;;;;;;4.63;3.33;;;6.80;99.90;;;;;;5010215;28;20022;-77
2024/02/26 04:52:46;;;;;;;4.72;3.20;;;6.90;99.90;;;;;;4993249;28;20085;-77
2024/02/26 04:55:12;;;;;;;4.95;3.55;;;6.80;99.90;;;;;;4987526;28;20029;-77
2024/02/26 04:57:38;;;;;;;4.70;3.55;;;6.80;99.90;;;;;;5006074;28;20026;-77
2024/02/26 05:00:05;;;;;;;5.57;3.40;;;6.80;99.90;;;;;;4992005;28;20092;-77
2024/02/26 05:02:33;;;;;;;4.53;3.38;;;6.80;99.90;;;;;;4995728;28;20117;-77
2024/02/26 05:04:59;;;;;;;5.65;3.70;;;6.80;99.90;;;;;;4981974;28;20037;-77
2024/02/26 05:07:24;;;;;;;5.53;3.50;;;6.80;99.90;;;;;;4994510;28;20022;-77
2024/02/26 05:09:50;;;;;;;5.05;3.70;;;6.80;99.90;;;;;;4986663;28;20458;-77
2024/02/26 05:12:16;;;;;;;4.50;3.03;;;6.80;99.90;;;;;;4976389;28;20527;-77
2024/02/26 05:14:42;;;;;;;7.75;3.85;;;6.80;99.90;;;;;;5010174;28;20028;-76
2024/02/26 05:17:08;;;;;;;6.00;3.70;;;6.70;99.90;;;;;;4986686;28;20112;-77
2024/02/26 05:19:34;;;;;;;5.35;3.60;;;6.70;99.90;;;;;;5005378;28;20113;-77
2024/02/26 05:21:59;;;;;;;5.20;3.50;;;6.70;99.90;;;;;;4992916;28;20030;-77
2024/02/26 05:24:25;;;;;;;4.90;3.20;;;6.70;99.90;;;;;;4986593;28;20026;-77
2024/02/26 05:26:50;;;;;;;6.03;3.50;;;6.70;99.90;;;;;;5006254;28;20021;-77
2024/02/26 05:29:16;;;;;;;5.10;3.67;;;6.70;99.90;;;;;;5005427;28;20065;-77
2024/02/26 05:31:45;;;;;;;5.88;3.83;;;6.70;99.90;;;;;;5005946;28;20046;-77
2024/02/26 05:34:10;;;;;;;6.40;3.35;;;6.70;99.90;;;;;;4991610;28;20080;-77
2024/02/26 05:36:36;;;;;;;5.13;3.13;;;6.70;99.90;;;;;;5005285;28;20486;-77
2024/02/26 05:39:03;;;;;;;6.15;3.88;;;6.60;99.90;;;;;;4992517;28;20026;-77
2024/02/26 05:41:29;;;;;;;5.07;3.63;;;6.70;99.90;;;;;;5005044;28;20014;-77
2024/02/26 05:43:55;;;;;;;6.07;4.13;;;6.60;99.90;;;;;;4987749;28;20446;-77
2024/02/26 05:46:21;;;;;;;5.00;3.80;;;6.60;99.90;;;;;;4991526;28;20056;-77
2024/02/26 05:48:49;;;;;;;6.60;3.80;;;6.60;99.90;;;;;;5005624;28;20054;-77
2024/02/26 05:51:14;;;;;;;6.22;4.13;;;6.60;99.90;;;;;;5003536;28;20103;-77
2024/02/26 05:53:41;;;;;;;5.97;3.92;;;6.60;99.90;;;;;;4976507;28;20034;-77
2024/02/26 05:56:07;;;;;;;5.75;3.80;;;6.60;99.90;;;;;;4991353;28;20281;-77
2024/02/26 05:58:33;;;;;;;5.32;3.78;;;6.60;99.90;;;;;;4995069;28;20022;-77
2024/02/26 06:00:59;;;;;;;6.20;3.80;;;6.60;99.90;;;;;;5009019;28;20021;-77
2024/02/26 06:03:26;;;;;;;7.80;3.88;;;6.60;99.90;;;;;;5004339;28;20053;-77
2024/02/26 06:05:51;;;;;;;7.40;4.32;;;6.60;99.90;;;;;;4991589;28;20096;-77
2024/02/26 06:08:17;;;;;;;6.93;3.88;;;6.50;99.90;;;;;;5004888;28;20475;-77
2024/02/26 06:10:43;;;;;;;5.85;3.67;;;6.50;99.90;;;;;;5000265;28;20604;-77
2024/02/26 06:13:09;;;;;;;5.72;4.50;;;6.50;99.90;;;;;;5003477;28;20029;-77
2024/02/26 06:15:34;;;;;;;7.53;4.15;;;6.50;99.90;;;;;;4986299;28;20030;-77
2024/02/26 06:18:00;;;;;;;7.10;4.15;;;6.50;99.90;;;;;;4991151;28;20099;-77
2024/02/26 06:20:26;;;;;;;6.72;3.95;;;6.50;99.90;;;;;;5008295;28;20018;-77
2024/02/26 06:22:51;;;;;;;7.10;4.15;;;6.50;99.90;;;;;;5008600;28;20089;-77
2024/02/26 06:25:17;;;;;;;6.18;3.92;;;6.50;99.90;;;;;;4990380;28;20068;-77
2024/02/26 06:27:43;;;;;;;6.18;3.90;;;6.40;99.90;;;;;;4996181;28;20029;-77
2024/02/26 06:30:10;;;;;;;5.90;3.70;;;6.40;99.90;;;;;;5009967;28;20196;-77
2024/02/26 06:32:37;;;;;;;5.72;3.80;;;6.40;99.90;;;;;;5008571;28;20633;-77
2024/02/26 06:35:07;;;;;;;5.55;3.38;;;6.40;99.90;;;;;;5007777;28;20107;-76
2024/02/26 06:37:33;;;;;;;5.28;3.65;;;6.40;99.90;;;;;;5008447;28;20022;-76
2024/02/26 06:40:06;;;;;;;5.60;3.72;;;6.40;99.90;;;;;;4990563;28;20029;-75
2024/02/26 06:42:32;;;;;;;5.03;3.60;;;6.40;99.90;;;;;;5008205;28;20022;-75
2024/02/26 06:44:58;;;;;;;5.38;3.58;;;6.40;99.90;;;;;;5002269;28;20113;-76
2024/02/26 06:47:23;;;;;;;7.30;3.78;;;6.40;99.90;;;;;;4983206;28;20478;-76
2024/02/26 06:49:49;;;;;;;5.85;3.92;;;6.40;99.90;;;;;;4994065;28;20038;-75
2024/02/26 06:52:15;;;;;;;5.40;3.67;;;6.30;99.90;;;;;;4998162;28;20038;-75
2024/02/26 06:54:41;;;;;;;5.88;3.97;;;6.30;99.90;;;;;;5004803;28;20515;-75
2024/02/26 06:57:07;;;;;;;8.82;4.57;;;6.30;99.90;;;;;;5001793;28;20033;-76
2024/02/26 06:59:33;;;;;;;5.55;4.13;;;6.30;99.90;;;;;;5001970;28;20018;-75
2024/02/26 07:01:58;;;;;;;6.40;4.53;;;6.30;99.90;;;;;;4989620;28;20686;-77
2024/02/26 07:04:24;;;;;;;6.70;4.43;;;6.30;99.90;;;;;;4992977;28;20112;-77
2024/02/26 07:06:50;;;;;;;6.03;4.45;;;6.30;99.90;;;;;;5001029;28;20052;-77
2024/02/26 07:09:15;;;;;;;7.03;5.03;;;6.30;99.90;;;;;;5006620;28;20084;-77
2024/02/26 07:11:44;;;;;;;7.13;4.57;;;6.20;99.90;;;;;;4996987;28;20073;-77
2024/02/26 07:14:10;;;;;;;7.07;4.75;;;6.20;99.90;;;;;;4994681;28;20022;-77
2024/02/26 07:16:36;;;;;;;6.45;4.55;;;6.20;99.90;;;;;;5004546;28;20056;-77
2024/02/26 07:19:02;;;;;;;7.07;4.82;;;6.20;99.90;;;;;;5006609;28;20061;-78
2024/02/26 07:21:28;;;;;;;9.27;5.18;;;6.20;99.90;;;;;;5006995;28;20028;-77
2024/02/26 07:23:54;;;;;;;7.72;5.40;;;6.20;99.90;;;;;;5004573;28;20029;-76
2024/02/26 07:26:19;;;;;;;8.77;5.43;;;6.20;99.90;;;;;;5002802;28;20109;-77
2024/02/26 07:28:45;;;;;;;7.13;5.38;;;6.20;99.90;;;;;;4980380;28;20118;-76
2024/02/26 07:31:11;;;;;;;8.15;5.50;;;6.20;99.90;;;;;;4974569;28;20028;-77
2024/02/26 07:33:36;;;;;;;8.20;5.70;;;6.20;99.90;;;;;;4988537;28;20096;-77
2024/02/26 07:36:02;;;;;;;9.50;5.72;;;6.20;99.90;;;;;;4990133;28;20076;-77
2024/02/26 07:38:28;;;;;;;10.18;6.28;;;6.20;99.90;;;;;;4997964;28;20599;-77
2024/02/26 07:40:54;;;;;;;8.60;6.15;;;6.20;99.90;;;;;;4992862;28;20030;-77
2024/02/26 07:43:19;;;;;;;9.43;6.43;;;6.20;99.90;;;;;;5004919;28;20033;-76
2024/02/26 07:45:45;;;;;;;8.75;5.82;;;6.20;99.90;;;;;;5006329;28;20037;-77
2024/02/26 07:48:10;;;;;;;9.77;6.40;;;6.20;99.90;;;;;;4981585;28;20443;-77
2024/02/26 07:50:36;;;;;;;10.00;6.57;;;6.20;99.90;;;;;;4996805;28;20057;-77
2024/02/26 07:53:04;;;;;;;9.43;6.78;;;6.20;99.90;;;;;;5005954;28;20080;-76
2024/02/26 07:55:30;;;;;;;10.02;6.78;;;6.20;99.90;;;;;;5006070;28;20025;-78
2024/02/26 07:57:55;;;;;;;10.95;7.10;;;6.20;99.90;;;;;;5007247;28;20025;-75
2024/02/26 08:00:21;;;;;;;11.50;7.18;;;6.20;99.90;;;;;;5005728;28;20025;-76
2024/02/26 08:02:47;;;;;;;11.48;7.93;;;6.20;99.90;;;;;;5007099;28;20040;-76
2024/02/26 08:05:13;;;;;;;12.15;8.00;;;6.20;99.90;;;;;;5000051;28;20057;-76
2024/02/26 08:07:38;;;;;;;12.45;8.10;;;6.20;99.90;;;;;;4980132;28;20083;-76
2024/02/26 08:10:04;;;;;;;12.20;8.07;;;6.20;99.90;;;;;;4987685;28;20081;-77
2024/02/26 08:12:30;;;;;;;11.82;8.00;;;6.20;99.90;;;;;;4997671;28;20057;-78
2024/02/26 08:14:56;;;;;;;12.75;8.38;;;6.20;99.90;;;;;;5001022;28;20486;-76
2024/02/26 08:17:21;;;;;;;12.15;8.38;;;6.10;99.90;;;;;;4992371;28;20032;-77
2024/02/26 08:19:47;;;;;;;14.02;9.20;;;6.20;99.90;;;;;;4993257;28;20037;-76
2024/02/26 08:22:15;;;;;;;13.55;9.73;;;6.20;99.90;;;;;;4977744;28;20050;-76
2024/02/26 08:24:42;;;;;;;13.18;9.00;;;6.20;99.90;;;;;;5005613;28;20594;-75
2024/02/26 08:27:08;;;;;;;14.57;9.30;;;6.20;99.90;;;;;;5005885;28;20104;-77
2024/02/26 08:29:33;;;;;;;13.93;8.88;;;6.20;99.90;;;;;;5000633;28;20494;-75
2024/02/26 08:31:59;;;;;;;14.38;9.52;;;6.20;99.90;;;;;;5005424;28;20034;-75
2024/02/26 08:34:25;;;;;;;16.05;9.80;;;6.20;99.90;;;;;;4994077;28;20059;-75
2024/02/26 08:36:51;;;;;;;16.27;9.60;;;6.20;99.90;;;;;;5004840;28;20088;-75
2024/02/26 08:39:17;;;;;;;15.50;9.15;;;6.20;99.90;;;;;;4999805;28;20038;-75
2024/02/26 08:41:46;;;;;;;13.82;9.23;;;6.20;99.90;;;;;;4993894;28;20113;-75
2024/02/26 08:44:12;;;;;;;18.35;9.93;;;6.10;99.90;;;;;;4993572;28;20033;-75
2024/02/26 08:46:37;;;;;;;14.63;9.32;;;6.20;99.90;;;;;;4998133;28;20022;-75
2024/02/26 08:49:03;;;;;;;14.40;8.90;;;6.10;99.90;;;;;;4991216;28;20022;-75
2024/02/26 08:51:29;;;;;;;13.82;8.80;;;6.10;99.90;;;;;;5004418;28;20493;-75
2024/02/26 08:53:55;;;;;;;14.52;9.20;;;6.20;99.90;;;;;;4996740;28;20030;-75
2024/02/26 08:56:21;;;;;;;16.15;9.30;;;6.20;99.90;;;;;;4999161;28;20018;-75
2024/02/26 08:58:48;;;;;;;14.88;9.73;;;6.20;99.90;;;;;;5000733;28;20097;-75
2024/02/26 09:01:17;;;;;;;18.50;9.40;;;6.20;99.90;;;;;;5002784;28;20030;-75
2024/02/26 09:03:43;;;;;;;17.35;10.00;;;6.20;99.90;;;;;;4999593;28;20037;-75
2024/02/26 09:06:09;;;;;;;15.52;9.45;;;6.20;99.90;;;;;;4972800;28;20589;-75
2024/02/26 09:08:36;;;;;;;16.70;10.20;;;6.20;99.90;;;;;;4995146;28;20038;-75
2024/02/26 09:11:03;;;;;;;16.83;9.70;;;6.20;99.90;;;;;;5006138;28;20720;-75
2024/02/26 09:13:29;;;;;;;17.00;9.45;;;6.20;99.90;;;;;;4993333;28;20021;-75
2024/02/26 09:15:54;;;;;;;16.40;10.25;;;6.20;99.90;;;;;;5004840;28;20022;-75
2024/02/26 09:18:20;;;;;;;15.02;9.10;;;6.20;99.90;;;;;;4988358;28;20061;-75
2024/02/26 09:20:46;;;;;;;18.13;10.38;;;6.30;99.90;;;;;;4988434;28;20021;-75
2024/02/26 09:23:11;;;;;;;17.50;9.52;;;6.30;99.90;;;;;;5003904;28;20022;-75
2024/02/26 09:25:37;;;;;;;22.23;10.90;;;6.30;99.90;;;;;;4987012;28;20088;-75
2024/02/26 09:28:03;;;;;;;17.85;10.38;;;6.30;99.90;;;;;;4989034;28;20433;-75
2024/02/26 09:30:29;;;;;;;19.40;10.57;;;6.30;99.90;;;;;;5001892;28;20882;-75
2024/02/26 09:32:54;;;;;;;18.67;10.70;;;6.30;99.90;;;;;;5002621;28;20030;-75
2024/02/26 09:35:21;;;;;;;19.63;10.73;;;6.30;99.90;;;;;;4996703;28;20294;-75
2024/02/26 09:37:48;;;;;;;20.83;10.98;;;6.30;99.90;;;;;;5004455;28;20022;-75
2024/02/26 09:40:14;;;;;;;22.95;11.75;;;6.40;99.90;;;;;;4992950;28;20266;-75
2024/02/26 09:42:46;;;;;;;22.45;11.57;;;6.40;99.90;;;;;;5008484;28;20364;-74
2024/02/26 09:45:18;;;;;;;18.95;10.93;;;6.40;99.90;;;;;;5005761;28;20030;-75
2024/02/26 09:47:45;;;;;;;21.83;10.93;;;6.40;99.90;;;;;;4982425;28;20029;-76
2024/02/26 09:50:13;;;;;;;21.70;11.45;;;6.40;99.90;;;;;;4989335;28;20019;-75
2024/02/26 09:52:41;;;;;;;21.13;10.82;;;6.40;99.90;;;;;;4992187;28;20100;-75
2024/02/26 09:55:09;;;;;;;19.98;10.95;;;6.40;99.90;;;;;;5006381;28;20134;-75
2024/02/26 09:57:37;;;;;;;20.13;10.45;;;6.40;99.90;;;;;;4986618;28;20030;-75
2024/02/26 10:00:07;;;;;;;20.60;10.65;;;6.40;99.90;;;;;;5003815;28;20133;-75
2024/02/26 10:02:35;;;;;;;23.42;11.45;;;6.40;99.90;;;;;;4993727;28;20046;-75
2024/02/26 10:05:05;;;;;;;18.23;10.18;;;6.40;99.90;;;;;;5005280;28;20049;-75
2024/02/26 10:07:31;;;;;;;21.55;10.05;;;6.40;99.90;;;;;;5007601;28;20054;-74
2024/02/26 10:09:57;;;;;;;21.15;10.52;;;6.40;99.90;;;;;;5000635;28;20525;-75
2024/02/26 10:12:25;;;;;;;20.23;10.40;;;6.40;99.90;;;;;;4991912;28;20034;-75
2024/02/26 10:14:51;;;;;;;19.08;10.38;;;6.40;99.90;;;;;;4999414;28;20028;-76
2024/02/26 10:17:18;;;;;;;17.70;9.40;;;6.40;99.90;;;;;;4993139;28;20014;-75
2024/02/26 10:19:44;;;;;;;18.98;10.75;;;6.40;99.90;;;;;;4990037;28;20117;-76
2024/02/26 10:22:10;;;;;;;19.52;10.48;;;6.40;99.90;;;;;;5007336;28;20108;-76
2024/02/26 10:24:36;;;;;;;17.10;8.82;;;6.40;99.90;;;;;;5001292;28;20043;-75
2024/02/26 10:27:02;;;;;;;17.60;10.10;;;6.40;99.90;;;;;;4979544;28;20042;-75
2024/02/26 10:29:28;;;;;;;20.75;9.82;;;6.40;99.90;;;;;;4997001;28;20390;-75
2024/02/26 10:31:54;;;;;;;18.23;10.18;;;6.40;99.90;;;;;;5001097;28;20455;-75
2024/02/26 10:34:20;;;;;;;17.77;9.93;;;6.40;99.90;;;;;;4985485;28;20022;-76
2024/02/26 10:36:46;;;;;;;17.25;9.88;;;6.40;99.90;;;;;;4989348;28;20065;-75
2024/02/26 10:39:13;;;;;;;17.63;10.45;;;6.50;99.90;;;;;;5005801;28;20209;-74
2024/02/26 10:41:41;;;;;;;17.63;9.60;;;6.50;99.90;;;;;;4977125;28;20497;-75
2024/02/26 10:44:12;;;;;;;19.38;9.73;;;6.40;99.90;;;;;;5001132;28;20025;-75
2024/02/26 10:46:40;;;;;;;16.77;10.38;;;6.50;99.90;;;;;;5006939;28;20038;-75
2024/02/26 10:49:12;;;;;;;21.20;10.35;;;6.50;99.90;;;;;;5002433;28;20493;-76
2024/02/26 10:51:39;;;;;;;19.33;10.73;;;6.50;99.90;;;;;;5002131;28;20516;-76
2024/02/26 10:54:07;;;;;;;15.80;9.65;;;6.50;99.90;;;;;;4999031;28;20042;-75
2024/02/26 10:56:34;;;;;;;20.02;10.52;;;6.50;99.90;;;;;;4993177;28;20455;-75
2024/02/26 10:59:01;;;;;;;19.77;10.98;;;6.50;99.90;;;;;;5003929;28;20018;-75
2024/02/26 11:01:31;;;;;;;16.67;10.02;;;6.50;99.90;;;;;;5007938;28;20173;-75
2024/02/26 11:03:58;;;;;;;18.52;9.57;;;6.50;99.90;;;;;;4983541;28;20040;-75
2024/02/26 11:06:26;;;;;;;19.05;10.45;;;6.50;99.90;;;;;;4989522;28;20507;-75
2024/02/26 11:08:53;;;;;;;19.00;11.32;;;6.60;99.90;;;;;;4997758;28;20349;-75
2024/02/26 11:11:20;;;;;;;19.70;11.27;;;6.60;99.90;;;;;;5006562;28;20487;-75
2024/02/26 11:13:50;;;;;;;18.25;10.40;;;6.50;99.90;;;;;;4981210;28;20034;-75
2024/02/26 11:16:19;;;;;;;18.75;10.15;;;6.50;99.90;;;;;;4999924;28;20021;-75
2024/02/26 11:18:47;;;;;;;19.05;10.35;;;6.60;99.90;;;;;;5007697;28;20026;-75
2024/02/26 11:21:15;;;;;;;19.15;10.90;;;6.50;99.90;;;;;;4994759;28;20043;-75
2024/02/26 11:23:42;;;;;;;20.02;11.05;;;6.60;99.90;;;;;;4990018;28;20419;-75
2024/02/26 11:26:11;;;;;;;21.42;11.85;;;6.60;99.90;;;;;;4997026;28;20018;-75
2024/02/26 11:28:38;;;;;;;21.40;10.82;;;6.60;99.90;;;;;;4989537;28;20557;-75
2024/02/26 11:31:05;;;;;;;23.92;11.88;;;6.50;99.90;;;;;;4997301;28;20034;-75
2024/02/26 11:33:31;;;;;;;18.83;10.63;;;6.50;99.90;;;;;;4988000;28;20457;-75
2024/02/26 11:35:58;;;;;;;18.63;11.10;;;6.50;99.90;;;;;;5004859;28;20033;-75
2024/02/26 11:38:26;;;;;;;18.75;10.82;;;6.60;99.90;;;;;;4996113;28;20025;-75
2024/02/26 11:40:53;;;;;;;17.75;10.20;;;6.50;99.90;;;;;;4993469;28;20068;-75
2024/02/26 11:43:23;;;;;;;17.15;10.85;;;6.50;99.90;;;;;;4989845;28;20021;-75
2024/02/26 11:45:51;;;;;;;20.15;11.55;;;6.50;99.90;;;;;;5005510;28;20026;-75
2024/02/26 11:48:22;;;;;;;18.42;11.15;;;6.50;99.90;;;;;;4997103;28;20054;-75
2024/02/26 11:50:49;;;;;;;20.33;10.70;;;6.60;99.90;;;;;;5003489;28;20026;-76
2024/02/26 11:53:24;;;;;;;20.83;10.20;;;6.60;99.90;;;;;;5001289;28;20030;-75
2024/02/26 11:56:18;;;;;;;17.73;9.63;;;6.60;99.90;;;;;;5000543;28;20113;-76
2024/02/26 11:58:44;;;;;;;17.75;10.25;;;6.50;99.90;;;;;;4981855;28;20034;-75
2024/02/26 12:01:41;;;;;;;20.50;10.07;;;6.50;99.90;;;;;;5003306;28;20088;-75
2024/02/26 12:04:12;;;;;;;16.70;9.93;;;6.60;99.90;;;;;;4976094;28;20121;-76
2024/02/26 12:06:56;;;;;;;17.20;9.20;;;6.60;99.90;;;;;;5003990;28;20029;-76
2024/02/26 12:09:39;;;;;;;16.55;9.93;;;6.60;99.90;;;;;;4987006;28;20049;-76
2024/02/26 12:12:06;;;;;;;15.38;9.13;;;6.60;99.90;;;;;;5004271;28;20041;-75
2024/02/26 12:14:51;;;;;;;15.10;9.02;;;6.60;99.90;;;;;;4996138;28;20025;-77
2024/02/26 12:17:22;;;;;;;16.45;8.50;;;6.60;99.90;;;;;;5000779;28;20032;-76
2024/02/26 12:19:48;;;;;;;17.58;9.10;;;6.60;99.90;;;;;;5007417;28;20073;-76
2024/02/26 12:22:15;;;;;;;17.77;9.18;;;6.60;99.90;;;;;;5000436;28;20053;-76
2024/02/26 12:24:41;;;;;;;16.00;8.80;;;6.60;99.90;;;;;;4982137;28;20030;-77
2024/02/26 12:27:06;;;;;;;14.43;7.88;;;6.60;99.90;;;;;;4999973;28;20461;-77
2024/02/26 12:29:32;;;;;;;16.58;8.63;;;6.70;99.90;;;;;;4993441;28;20021;-77
2024/02/26 12:31:58;;;;;;;14.90;7.85;;;6.70;99.90;;;;;;5000069;28;20030;-76
2024/02/26 12:34:24;;;;;;;13.38;7.63;;;6.60;99.90;;;;;;4992616;28;20025;-77
2024/02/26 12:36:50;;;;;;;13.70;7.65;;;6.60;99.90;;;;;;4999332;28;20037;-77
2024/02/26 12:39:16;;;;;;;14.20;7.43;;;6.70;99.90;;;;;;5008959;28;20360;-76
2024/02/26 12:41:49;;;;;;;13.13;7.40;;;6.70;99.90;;;;;;4980955;28;20499;-76
2024/02/26 12:44:15;;;;;;;14.15;7.75;;;6.70;99.90;;;;;;4997625;28;20042;-76
2024/02/26 12:46:41;;;;;;;15.80;7.53;;;6.70;99.90;;;;;;4984597;28;20060;-76
2024/02/26 12:49:07;;;;;;;13.60;6.70;;;6.70;99.90;;;;;;5001106;28;20125;-76